Impacts METAR Board INFO
IDs:

KPHL - Philadelphia Intl, PA, US

Updated at: 1808 UTC 22 Jan 2018
Potential Impact None Slight Moderate High
Time22/06Z 22/07Z 22/08Z 22/09Z 22/10Z 22/11Z 22/12Z 22/13Z 22/14Z 22/15Z 22/16Z 22/17Z 22/18Z
VIS10 10 10 10 10 10 10 10 10 10 10 10 10
CIG95 65 60 70 60 100 100 100 100 110 110 70 110
CoverBKNBKNOVCOVCOVCOVCOVCOVCOVCOVCOVCOVCOVC
FltCatVFRVFRVFRVFRVFRVFRVFRVFRVFRVFRVFRVFRVFR
WX---------RA----------------
WDir033000130000140800200180
WSpd0 7 0 0 3 0 0 0 4 4 5 3 3
WGst-- -- -- -- -- -- -- -- -- -- -- -- --
Raw hourly METARs
KPHL 220554Z 00000KT 10SM BKN095 07/02 A3014 RMK AO2 SLP205 T00670017 10083 20061 56011
KPHL 220654Z 33007KT 10SM BKN065 BKN090 07/02 A3015 RMK AO2 SLP208 T00720017
KPHL 220754Z 00000KT 10SM BKN060 BKN095 OVC160 07/02 A3014 RMK AO2 SLP207 T00670017
KPHL 220854Z 00000KT 10SM SCT055 BKN070 OVC100 07/02 A3014 RMK AO2 SLP206 T00670017 50001
KPHL 220954Z 13003KT 10SM -RA BKN060 OVC080 06/02 A3014 RMK AO2 RAB47 SLP205 P0000 T00560017
KPHL 221054Z 00000KT 10SM FEW050 SCT065 OVC100 06/02 A3014 RMK AO2 RAE20 SLP206 P0000 T00610022
KPHL 221154Z 00000KT 10SM FEW049 OVC100 06/02 A3016 RMK AO2 SLP211 60000 T00610022 10078 20056 53005
KPHL 221254Z 00000KT 10SM FEW049 OVC100 07/02 A3016 RMK AO2 SLP212 T00670022
KPHL 221354Z 14004KT 10SM OVC100 07/03 A3017 RMK AO2 SLP216 T00720028
KPHL 221454Z 08004KT 10SM BKN110 OVC270 09/03 A3018 RMK AO2 SLP219 T00890033 53008
KPHL 221554Z VRB05KT 10SM FEW075 BKN110 OVC270 11/04 A3019 RMK AO2 SLP221 T01060039
KPHL 221654Z 20003KT 10SM BKN070 OVC110 12/04 A3014 RMK AO2 SLP206 T01220039
KPHL 221754Z 18003KT 10SM SCT075 SCT090 BKN110 OVC260 14/04 A3011 RMK AO2 SLP196 T01390044 10144 20056 58024